CheckWX is a tool to help pilots better visualize weather data.  It is not intended as a substitute for an official pre-flight weather briefing.

20:48:28 UTC

KFWB METAR
Branson West Municipal - Emerson Field Airport
Branson West, Missouri, USA
Current

33 mins ago

KFWB 232015Z AUTO 24006KT 10SM CLR 25/14 A2998 RMK AO2
Observed
Apr-23 @ 20:15 UTC
Wind
  • 240° at 6 KTS
Visibility
10 SM
Flight Rules
VFR
Cloud Levels
  • Clear skies
Temperature
25°C / 77°F
Dewpoint
14°C / 57°F
Humidity
51%
Altimeter
29.98" Hg
Pressure
1015.22 hPa
Previous

53 mins ago

KFWB 231955Z AUTO 16003KT 10SM FEW075 25/14 A2999 RMK AO2
Observed
Apr-23 @ 19:55 UTC
Wind
  • 160° at 3 KTS
Visibility
10 SM
Flight Rules
VFR
Cloud Levels
  • Few at 7,500' AGL
Temperature
25°C / 77°F
Dewpoint
14°C / 57°F
Humidity
51%
Altimeter
29.99" Hg
Pressure
1015.62 hPa
Previous

1 hour ago

KFWB 231935Z AUTO 25006KT 10SM FEW075 24/15 A3000 RMK AO2
Observed
Apr-23 @ 19:35 UTC
Wind
  • 250° at 6 KTS
Visibility
10 SM
Flight Rules
VFR
Cloud Levels
  • Few at 7,500' AGL
Temperature
24°C / 75°F
Dewpoint
15°C / 59°F
Humidity
57%
Altimeter
30" Hg
Pressure
1015.92 hPa